createdAt,value
2023-01-05T00:01:11.701Z,7.20
2023-01-05T00:03:39.061Z,7.21
2023-01-05T00:06:11.429Z,7.09
2023-01-05T00:08:38.900Z,7.00
2023-01-05T00:11:45.046Z,6.82
2023-01-05T00:14:35.894Z,6.75
2023-01-05T00:17:21.379Z,6.74
2023-01-05T00:20:07.034Z,6.68
2023-01-05T00:22:39.041Z,6.70
2023-01-05T00:25:13.777Z,6.70
2023-01-05T00:27:42.481Z,6.82
2023-01-05T00:30:12.008Z,6.71
2023-01-05T00:32:39.142Z,6.79
2023-01-05T00:35:06.188Z,6.82
2023-01-05T00:37:35.610Z,6.91
2023-01-05T00:40:02.484Z,6.84
2023-01-05T00:42:29.562Z,7.01
2023-01-05T00:44:56.458Z,7.07
2023-01-05T00:47:23.356Z,7.11
2023-01-05T00:49:50.279Z,7.16
2023-01-05T00:52:17.444Z,7.21
2023-01-05T00:54:44.291Z,7.15
2023-01-05T00:57:12.374Z,7.16
2023-01-05T00:59:39.811Z,7.30
2023-01-05T01:02:07.238Z,7.26
2023-01-05T01:04:34.981Z,7.20
2023-01-05T01:07:04.504Z,7.22
2023-01-05T01:09:31.546Z,7.35
2023-01-05T01:11:58.569Z,7.28
2023-01-05T01:14:25.952Z,7.38
2023-01-05T01:16:52.827Z,7.41
2023-01-05T01:19:25.157Z,7.48
2023-01-05T01:21:52.188Z,7.31
2023-01-05T01:24:25.965Z,7.24
2023-01-05T01:26:54.115Z,7.24
2023-01-05T01:29:21.993Z,7.05
2023-01-05T01:31:50.347Z,7.27
2023-01-05T01:34:17.744Z,7.35
2023-01-05T01:36:45.080Z,7.29
2023-01-05T01:39:13.549Z,7.23
2023-01-05T01:41:43.832Z,7.25
2023-01-05T01:44:48.928Z,7.11
2023-01-05T01:47:20.188Z,6.93
2023-01-05T01:49:47.626Z,6.90
2023-01-05T01:52:15.322Z,6.78
2023-01-05T01:54:42.813Z,6.75
2023-01-05T01:57:11.840Z,6.85
2023-01-05T01:59:39.573Z,6.84
2023-01-05T02:02:07.972Z,6.86
2023-01-05T02:04:37.681Z,6.92
2023-01-05T02:07:07.491Z,7.09
2023-01-05T02:09:35.053Z,7.03
2023-01-05T02:12:09.307Z,6.96
2023-01-05T02:15:00.249Z,6.94
2023-01-05T02:17:58.758Z,6.91
2023-01-05T02:20:48.010Z,6.95
2023-01-05T02:23:36.029Z,6.92
2023-01-05T02:26:41.256Z,7.02
2023-01-05T02:29:11.185Z,7.11
2023-01-05T02:31:58.204Z,6.94
2023-01-05T02:34:58.519Z,6.92
2023-01-05T02:37:34.788Z,7.04
2023-01-05T02:40:21.146Z,7.03
2023-01-05T02:42:53.220Z,6.94
2023-01-05T02:45:23.369Z,6.91
2023-01-05T02:47:55.233Z,6.96
2023-01-05T02:50:41.336Z,6.99
2023-01-05T02:53:29.894Z,6.94
2023-01-05T02:56:05.115Z,6.91
2023-01-05T02:58:41.855Z,6.95
2023-01-05T03:01:17.499Z,7.12
2023-01-05T03:03:58.757Z,6.99
2023-01-05T03:06:33.884Z,6.90
2023-01-05T03:09:05.030Z,6.99
2023-01-05T03:12:19.458Z,6.99
2023-01-05T03:27:09.954Z,6.27
2023-01-05T03:29:56.016Z,6.47
2023-01-05T03:32:45.870Z,6.54
2023-01-05T03:35:38.542Z,6.54
2023-01-05T03:38:40.532Z,6.37
2023-01-05T03:41:12.723Z,6.27
2023-01-05T03:43:43.214Z,6.39
2023-01-05T03:46:14.154Z,6.32
2023-01-05T03:48:43.496Z,6.17
2023-01-05T03:51:10.558Z,6.12
2023-01-05T03:53:40.062Z,6.11
2023-01-05T03:56:07.878Z,6.18
2023-01-05T03:58:35.228Z,6.11
2023-01-05T04:01:02.357Z,5.99
2023-01-05T04:03:32.268Z,5.93
2023-01-05T04:06:03.277Z,5.93
2023-01-05T04:08:32.440Z,6.02
2023-01-05T04:11:18.034Z,6.01
2023-01-05T04:13:53.365Z,6.03
2023-01-05T04:16:21.469Z,6.03
2023-01-05T04:18:50.280Z,6.11
2023-01-05T04:21:19.598Z,6.23
2023-01-05T04:23:48.527Z,6.34
2023-01-05T04:26:17.034Z,6.38
2023-01-05T04:28:49.565Z,6.48
2023-01-05T04:31:18.922Z,6.37
2023-01-05T04:33:46.029Z,6.35
2023-01-05T04:36:17.743Z,6.40
2023-01-05T04:38:46.192Z,6.53
2023-01-05T04:41:13.767Z,6.54
2023-01-05T04:43:44.511Z,6.68
2023-01-05T04:46:12.878Z,6.77
2023-01-05T04:48:39.771Z,6.76
2023-01-05T04:51:07.692Z,6.80
2023-01-05T04:53:37.640Z,6.84
2023-01-05T04:56:06.727Z,6.94
2023-01-05T04:58:41.047Z,6.89
2023-01-05T05:01:08.301Z,7.11
2023-01-05T05:03:36.981Z,6.99
2023-01-05T05:06:07.062Z,6.90
2023-01-05T05:08:33.951Z,6.90
2023-01-05T05:11:02.978Z,6.97
2023-01-05T05:13:33.008Z,6.91
2023-01-05T05:16:01.267Z,6.99
2023-01-05T05:18:29.712Z,7.13
2023-01-05T05:20:56.591Z,7.03
2023-01-05T05:23:29.078Z,6.95
2023-01-05T05:25:57.382Z,7.12
2023-01-05T05:28:28.371Z,7.04
2023-01-05T05:30:59.311Z,6.97
2023-01-05T05:33:29.635Z,7.04
2023-01-05T05:35:56.593Z,7.12
2023-01-05T05:38:23.563Z,7.02
2023-01-05T05:40:50.625Z,7.11
2023-01-05T05:43:17.658Z,6.97
2023-01-05T05:45:49.953Z,6.99
2023-01-05T05:48:18.415Z,7.08
2023-01-05T05:50:45.930Z,7.07
2023-01-05T05:53:13.054Z,7.20
2023-01-05T05:55:39.971Z,7.39
2023-01-05T05:58:07.084Z,7.36
2023-01-05T06:00:34.254Z,7.38
2023-01-05T06:03:01.292Z,7.27
2023-01-05T06:05:28.447Z,7.22
2023-01-05T06:07:55.228Z,7.34
2023-01-05T06:10:22.120Z,7.46
2023-01-05T06:12:49.128Z,7.47
2023-01-05T06:15:16.134Z,7.68
2023-01-05T06:17:43.020Z,7.64
2023-01-05T06:20:10.250Z,7.55
2023-01-05T06:22:37.327Z,7.57
2023-01-05T06:25:05.278Z,7.57
2023-01-05T06:27:32.699Z,7.84
2023-01-05T06:29:59.659Z,7.83
2023-01-05T06:32:26.525Z,7.91
2023-01-05T06:34:53.396Z,8.03
2023-01-05T06:37:20.412Z,8.10
2023-01-05T06:39:47.234Z,8.22
2023-01-05T06:42:14.965Z,8.14
2023-01-05T06:44:43.846Z,8.32
2023-01-05T06:47:10.721Z,8.44
2023-01-05T06:49:37.530Z,8.49
2023-01-05T06:52:04.792Z,8.75
2023-01-05T06:54:31.563Z,8.89
2023-01-05T06:56:58.491Z,9.04
2023-01-05T06:59:25.372Z,9.04
2023-01-05T07:01:52.361Z,9.68
2023-01-05T07:04:19.604Z,9.88
2023-01-05T07:06:46.723Z,10.01
2023-01-05T07:09:13.653Z,10.05
2023-01-05T07:11:40.498Z,10.06
2023-01-05T07:14:07.366Z,9.59
2023-01-05T07:16:34.206Z,9.78
2023-01-05T07:19:01.144Z,10.37
2023-01-05T07:21:28.085Z,10.93
2023-01-05T07:23:55.005Z,10.92
2023-01-05T07:26:22.012Z,10.76
2023-01-05T07:28:48.907Z,11.30
2023-01-05T07:31:15.957Z,12.26
2023-01-05T07:33:42.881Z,13.42
2023-01-05T07:36:10.045Z,14.53
2023-01-05T07:38:36.928Z,15.66
2023-01-05T07:41:04.208Z,15.46
2023-01-05T07:43:31.180Z,14.95
2023-01-05T07:46:02.467Z,14.79
2023-01-05T07:48:29.557Z,15.44
2023-01-05T07:51:04.653Z,15.37
2023-01-05T07:53:38.105Z,17.61
2023-01-05T07:56:12.007Z,17.03
2023-01-05T07:58:39.083Z,18.13
2023-01-05T08:01:12.377Z,18.99
2023-01-05T08:03:39.848Z,18.37
2023-01-05T08:06:09.088Z,19.16
2023-01-05T08:08:36.421Z,18.70
2023-01-05T08:11:09.544Z,19.06
2023-01-05T08:13:55.361Z,18.91
2023-01-05T08:16:22.932Z,17.72
2023-01-05T08:18:49.861Z,16.57
2023-01-05T08:21:16.832Z,16.46
2023-01-05T08:23:45.886Z,16.67
2023-01-05T08:26:15.827Z,16.82
2023-01-05T08:28:43.209Z,16.53
2023-01-05T08:31:17.947Z,17.64
2023-01-05T08:33:45.382Z,17.15
2023-01-05T08:36:15.561Z,17.00
2023-01-05T08:38:48.321Z,17.19
2023-01-05T08:41:17.949Z,16.92
2023-01-05T08:43:44.863Z,16.93
2023-01-05T08:46:11.793Z,17.10
2023-01-05T08:48:38.673Z,17.43
2023-01-05T08:51:07.537Z,17.05
2023-01-05T08:53:34.948Z,17.59
2023-01-05T08:56:02.653Z,18.41
2023-01-05T08:58:29.690Z,18.48
2023-01-05T09:00:56.686Z,19.30
2023-01-05T09:03:23.705Z,19.01
2023-01-05T09:05:54.465Z,19.12
2023-01-05T09:08:21.368Z,18.84
2023-01-05T09:10:48.281Z,19.77
2023-01-05T09:13:17.185Z,19.60
2023-01-05T09:15:44.167Z,19.45
2023-01-05T09:18:11.118Z,19.38
2023-01-05T09:20:42.544Z,18.40
2023-01-05T09:23:09.392Z,19.44
2023-01-05T09:25:38.903Z,19.99
2023-01-05T09:28:05.772Z,19.25
2023-01-05T09:30:40.985Z,18.96
2023-01-05T09:33:09.085Z,19.63
2023-01-05T09:35:35.886Z,20.31
2023-01-05T09:38:02.749Z,19.48
2023-01-05T09:40:35.132Z,19.32
2023-01-05T09:43:02.156Z,20.12
2023-01-05T09:45:29.213Z,20.99
2023-01-05T09:47:59.341Z,21.38
2023-01-05T09:50:31.052Z,19.62
2023-01-05T09:53:00.219Z,19.68
2023-01-05T09:55:30.749Z,18.78
2023-01-05T09:58:27.926Z,19.02
2023-01-05T10:01:07.622Z,20.13
2023-01-05T10:04:03.996Z,18.76
2023-01-05T10:06:34.687Z,18.84
2023-01-05T10:09:04.418Z,19.32
2023-01-05T10:12:03.566Z,20.38
2023-01-05T10:14:53.063Z,22.33
2023-01-05T10:20:14.263Z,20.62
2023-01-05T10:22:57.974Z,19.94
2023-01-05T10:25:48.911Z,20.61
2023-01-05T10:28:25.131Z,22.58
2023-01-05T10:31:03.041Z,22.67
2023-01-05T10:34:05.932Z,21.58
2023-01-05T10:37:09.485Z,21.11
2023-01-05T10:39:56.674Z,21.93
2023-01-05T10:42:46.438Z,22.11
2023-01-05T10:45:19.741Z,21.90
2023-01-05T10:47:49.455Z,21.99
2023-01-05T10:50:22.596Z,20.85
2023-01-05T10:52:49.721Z,23.00
2023-01-05T10:55:19.075Z,22.78
2023-01-05T10:57:46.931Z,21.48
2023-01-05T11:00:21.297Z,21.13
2023-01-05T11:03:03.230Z,22.15
2023-01-05T11:05:37.192Z,22.83
2023-01-05T11:08:25.810Z,21.59
2023-01-05T11:11:07.816Z,23.62
2023-01-05T11:13:46.598Z,21.15
2023-01-05T11:16:16.550Z,20.99
2023-01-05T11:18:55.385Z,20.36
2023-01-05T11:21:29.081Z,19.58
2023-01-05T11:23:59.004Z,19.40
2023-01-05T11:26:28.186Z,18.78
2023-01-05T11:29:10.285Z,18.21
2023-01-05T11:32:02.306Z,19.42
2023-01-05T11:34:31.274Z,18.75
2023-01-05T11:37:08.108Z,17.73
2023-01-05T11:39:47.403Z,17.37
2023-01-05T11:42:29.640Z,16.62
2023-01-05T11:45:08.211Z,16.06
2023-01-05T11:47:46.421Z,16.49
2023-01-05T11:50:13.336Z,18.58
2023-01-05T11:52:46.945Z,20.22
2023-01-05T11:55:19.970Z,19.95
2023-01-05T11:57:50.527Z,18.53
2023-01-05T12:00:32.572Z,18.93
2023-01-05T12:03:30.420Z,17.98
2023-01-05T12:06:04.440Z,17.26
2023-01-05T12:08:41.922Z,16.76
2023-01-05T12:11:19.308Z,16.38
2023-01-05T12:14:07.489Z,15.91
2023-01-05T12:16:37.193Z,15.76
2023-01-05T12:19:32.977Z,15.92
2023-01-05T12:22:05.877Z,15.75
2023-01-05T12:25:09.895Z,15.17
2023-01-05T12:27:51.322Z,15.30
2023-01-05T12:36:21.677Z,17.48
2023-01-05T12:38:58.508Z,17.87
2023-01-05T12:42:09.929Z,16.70
2023-01-05T12:44:51.405Z,15.49
2023-01-05T12:47:39.879Z,14.88
2023-01-05T12:50:37.730Z,14.72
2023-01-05T12:53:26.257Z,14.29
2023-01-05T12:56:00.945Z,14.09
2023-01-05T12:58:34.998Z,14.08
2023-01-05T13:01:05.943Z,14.05
2023-01-05T13:04:17.586Z,13.75
2023-01-05T13:06:52.090Z,13.88
2023-01-05T13:09:23.065Z,13.80
2023-01-05T13:11:59.495Z,13.74
2023-01-05T13:14:31.062Z,13.74
2023-01-05T13:17:10.452Z,13.49
2023-01-05T13:19:44.978Z,13.60
2023-01-05T13:22:28.639Z,13.50
2023-01-05T13:25:01.081Z,13.68
2023-01-05T13:27:29.815Z,13.66
2023-01-05T13:29:59.813Z,13.53
2023-01-05T13:32:57.655Z,13.40
2023-01-05T13:35:49.377Z,13.23
2023-01-05T13:38:37.885Z,13.08
2023-01-05T13:41:19.231Z,13.22
2023-01-05T13:43:49.093Z,13.08
2023-01-05T13:47:03.537Z,13.20
2023-01-05T13:49:51.867Z,13.03
2023-01-05T13:52:24.634Z,12.84
2023-01-05T13:55:01.969Z,12.80
2023-01-05T13:57:37.854Z,12.80
2023-01-05T14:00:12.420Z,12.81
2023-01-05T14:02:43.391Z,12.76
2023-01-05T14:05:25.928Z,12.63
2023-01-05T14:07:55.494Z,12.66
2023-01-05T14:10:28.994Z,12.54
2023-01-05T14:12:56.689Z,12.46
2023-01-05T14:15:32.694Z,12.52
2023-01-05T14:18:04.145Z,12.52
2023-01-05T14:20:39.882Z,12.32
2023-01-05T14:23:29.848Z,12.21
2023-01-05T14:26:00.871Z,12.25
2023-01-05T14:28:30.821Z,12.22
2023-01-05T14:31:19.030Z,12.02
2023-01-05T14:34:03.693Z,11.86
2023-01-05T14:36:39.495Z,11.79
2023-01-05T14:39:20.198Z,11.57
2023-01-05T14:41:59.303Z,11.57
2023-01-05T14:44:36.061Z,11.58
2023-01-05T14:47:04.653Z,11.54
2023-01-05T14:49:55.191Z,11.42
2023-01-05T14:52:59.038Z,11.37
2023-01-05T14:55:39.601Z,11.29
2023-01-05T14:58:36.197Z,11.21
2023-01-05T15:03:53.493Z,11.11
2023-01-05T15:07:08.545Z,11.02
2023-01-05T15:09:54.140Z,11.02
2023-01-05T15:12:39.832Z,11.00
2023-01-05T15:29:27.560Z,9.92
2023-01-05T15:32:18.508Z,10.04
2023-01-05T15:34:52.906Z,10.20
2023-01-05T15:37:27.526Z,10.31
2023-01-05T15:39:56.679Z,10.32
2023-01-05T15:42:34.524Z,10.30
2023-01-05T15:45:01.804Z,10.32
2023-01-05T15:47:30.112Z,10.35
2023-01-05T15:50:00.053Z,10.32
2023-01-05T15:52:38.088Z,10.29
2023-01-05T15:55:10.690Z,10.29
2023-01-05T15:57:37.594Z,10.29
2023-01-05T16:00:18.179Z,10.31
2023-01-05T16:02:45.186Z,10.32
2023-01-05T16:05:18.335Z,10.28
2023-01-05T16:07:47.312Z,10.39
2023-01-05T16:10:24.038Z,10.44
2023-01-05T16:12:57.181Z,10.38
2023-01-05T16:15:26.213Z,10.36
2023-01-05T16:17:56.936Z,10.40
2023-01-05T16:20:26.026Z,10.36
2023-01-05T16:23:22.003Z,10.39
2023-01-05T16:25:59.407Z,10.33
2023-01-05T16:28:26.954Z,10.25
2023-01-05T16:30:55.138Z,10.19
2023-01-05T16:33:36.015Z,10.13
2023-01-05T16:36:13.368Z,10.21
2023-01-05T16:38:41.160Z,10.21
2023-01-05T16:41:54.363Z,10.16
2023-01-05T16:44:21.237Z,9.93
2023-01-05T16:47:04.827Z,9.80
2023-01-05T16:49:43.595Z,9.64
2023-01-05T16:52:23.941Z,9.69
2023-01-05T16:55:35.799Z,9.69
2023-01-05T16:58:24.402Z,9.54
2023-01-05T17:00:51.468Z,9.50
2023-01-05T17:03:31.514Z,9.48
2023-01-05T17:06:00.653Z,9.38
2023-01-05T17:08:31.836Z,9.45
2023-01-05T17:11:00.571Z,9.50
2023-01-05T17:13:37.623Z,9.41
2023-01-05T17:16:06.004Z,9.50
2023-01-05T17:18:32.828Z,9.46
2023-01-05T17:21:00.936Z,9.48
2023-01-05T17:23:31.416Z,9.38
2023-01-05T17:26:03.477Z,9.33
2023-01-05T17:28:30.488Z,9.23
2023-01-05T17:30:57.477Z,9.17
2023-01-05T17:33:24.433Z,9.09
2023-01-05T17:35:51.596Z,8.95
2023-01-05T17:38:18.658Z,8.93
2023-01-05T17:40:45.469Z,8.96
2023-01-05T17:43:12.426Z,8.97
2023-01-05T17:45:44.102Z,8.92
2023-01-05T17:50:45.011Z,8.98
2023-01-05T17:53:11.987Z,8.97
2023-01-05T17:55:41.474Z,8.95
2023-01-05T17:58:09.256Z,8.93
2023-01-05T18:00:39.829Z,8.89
2023-01-05T18:03:06.761Z,8.87
2023-01-05T18:05:33.652Z,8.84
2023-01-05T18:08:00.594Z,8.75
2023-01-05T18:10:29.328Z,8.72
2023-01-05T18:12:56.925Z,8.69
2023-01-05T18:15:24.032Z,8.82
2023-01-05T18:17:50.916Z,8.83
2023-01-05T18:20:19.972Z,8.86
2023-01-05T18:22:48.719Z,8.85
2023-01-05T18:25:16.152Z,8.80
2023-01-05T18:27:43.461Z,8.84
2023-01-05T18:30:12.133Z,8.85
2023-01-05T18:32:39.485Z,8.92
2023-01-05T18:35:10.000Z,8.99
2023-01-05T18:37:38.844Z,9.00
2023-01-05T18:40:06.681Z,9.07
2023-01-05T18:42:33.623Z,9.07
2023-01-05T18:45:08.949Z,9.14
2023-01-05T18:47:49.297Z,9.16
2023-01-05T18:50:16.650Z,9.10
2023-01-05T18:52:43.517Z,9.05
2023-01-05T18:55:11.310Z,9.05
2023-01-05T18:57:38.239Z,9.06
2023-01-05T19:00:06.178Z,9.03
2023-01-05T19:02:33.092Z,8.99
2023-01-05T19:05:00.069Z,8.94
2023-01-05T19:07:27.615Z,8.92
2023-01-05T19:09:54.556Z,8.97
2023-01-05T19:12:21.456Z,8.92
2023-01-05T19:14:48.415Z,8.93
2023-01-05T19:17:15.269Z,8.85
2023-01-05T19:19:42.275Z,8.82
2023-01-05T19:22:09.142Z,8.80
2023-01-05T19:24:38.410Z,8.82
2023-01-05T19:27:05.405Z,8.77
2023-01-05T19:29:32.277Z,8.88
2023-01-05T19:31:59.119Z,8.89
2023-01-05T19:34:26.069Z,8.92
2023-01-05T19:36:52.966Z,8.83
2023-01-05T19:39:21.966Z,8.91
2023-01-05T19:41:51.511Z,8.93
2023-01-05T19:44:21.324Z,8.91
2023-01-05T19:46:54.667Z,8.89
2023-01-05T19:49:27.139Z,8.86
2023-01-05T19:51:54.518Z,8.70
2023-01-05T19:54:22.673Z,8.66
2023-01-05T19:56:49.658Z,8.65
2023-01-05T19:59:19.354Z,8.53
2023-01-05T20:01:46.363Z,8.48
2023-01-05T20:04:14.080Z,8.49
2023-01-05T20:06:44.506Z,8.47
2023-01-05T20:09:17.547Z,8.44
2023-01-05T20:11:59.386Z,8.42
2023-01-05T20:14:32.966Z,8.39
2023-01-05T20:17:04.100Z,8.40
2023-01-05T20:19:32.476Z,8.33
2023-01-05T20:22:01.167Z,8.19
2023-01-05T20:24:31.169Z,8.18
2023-01-05T20:27:01.389Z,8.13
2023-01-05T20:29:29.290Z,8.16
2023-01-05T20:31:59.526Z,8.09
2023-01-05T20:34:31.877Z,8.04
2023-01-05T20:37:00.299Z,8.01
2023-01-05T20:39:27.235Z,7.94
2023-01-05T20:41:54.994Z,7.95
2023-01-05T20:44:25.589Z,7.86
2023-01-05T20:46:54.262Z,7.87
2023-01-05T20:49:22.136Z,7.91
2023-01-05T20:51:49.632Z,7.83
2023-01-05T20:54:16.553Z,7.70
2023-01-05T20:56:46.245Z,7.79
2023-01-05T20:59:26.549Z,7.78
2023-01-05T21:01:56.653Z,7.76
2023-01-05T21:04:25.291Z,7.67
2023-01-05T21:06:54.428Z,7.67
2023-01-05T21:09:25.600Z,7.69
2023-01-05T21:11:52.484Z,7.71
2023-01-05T21:14:20.107Z,7.69
2023-01-05T21:16:53.004Z,7.85
2023-01-05T21:19:23.206Z,7.96
2023-01-05T21:21:53.961Z,8.08
2023-01-05T21:24:21.529Z,8.22
2023-01-05T21:26:50.868Z,8.34
2023-01-05T21:29:20.425Z,8.50
2023-01-05T21:31:47.981Z,8.56
2023-01-05T21:34:15.431Z,8.60
2023-01-05T21:36:45.371Z,8.64
2023-01-05T21:39:22.099Z,8.70
2023-01-05T21:42:08.778Z,8.77
2023-01-05T21:44:36.347Z,8.81
2023-01-05T21:47:05.843Z,8.86
2023-01-05T21:49:36.585Z,8.84
2023-01-05T21:52:23.140Z,8.87
2023-01-05T21:55:08.577Z,8.79
2023-01-05T21:57:35.417Z,8.87
2023-01-05T22:00:03.036Z,8.92
2023-01-05T22:02:31.901Z,8.92
2023-01-05T22:04:58.708Z,8.90
2023-01-05T22:07:25.568Z,8.84
2023-01-05T22:09:52.485Z,8.96
2023-01-05T22:12:19.383Z,8.89
2023-01-05T22:14:46.337Z,8.89
2023-01-05T22:17:13.329Z,8.85
2023-01-05T22:19:40.095Z,8.86
2023-01-05T22:22:07.191Z,8.94
2023-01-05T22:24:34.011Z,8.98
2023-01-05T22:27:00.908Z,9.04
2023-01-05T22:29:27.840Z,9.11
2023-01-05T22:31:54.844Z,9.22
2023-01-05T22:34:21.791Z,9.34
2023-01-05T22:36:49.249Z,9.45
2023-01-05T22:39:16.662Z,9.46
2023-01-05T22:41:43.606Z,9.55
2023-01-05T22:44:10.458Z,9.59
2023-01-05T22:46:38.920Z,9.64
2023-01-05T22:49:06.066Z,9.59
2023-01-05T22:51:36.021Z,9.69
2023-01-05T22:54:04.430Z,9.80
2023-01-05T22:56:32.769Z,9.87
2023-01-05T22:59:00.121Z,9.93
2023-01-05T23:01:31.381Z,9.86
2023-01-05T23:04:00.447Z,9.91
2023-01-05T23:06:28.316Z,9.98
2023-01-05T23:08:55.926Z,10.03
2023-01-05T23:11:31.361Z,10.06
2023-01-05T23:14:00.218Z,10.05
2023-01-05T23:16:27.998Z,10.16
2023-01-05T23:18:55.437Z,10.20
2023-01-05T23:21:24.400Z,10.22
2023-01-05T23:23:52.555Z,10.21
2023-01-05T23:26:20.442Z,10.21
2023-01-05T23:28:48.127Z,10.29
2023-01-05T23:31:16.480Z,10.29
2023-01-05T23:33:44.081Z,10.27
2023-01-05T23:36:12.768Z,10.24
2023-01-05T23:38:40.195Z,10.32
2023-01-05T23:41:08.701Z,10.39
2023-01-05T23:43:38.009Z,10.40
2023-01-05T23:46:17.730Z,10.33
2023-01-05T23:48:44.660Z,10.37
2023-01-05T23:51:17.121Z,10.40
2023-01-05T23:53:49.180Z,10.42
2023-01-05T23:56:19.524Z,10.34
2023-01-05T23:58:47.444Z,10.37
